sensor_id;sensor_type;location;lat;lon;timestamp;P1;durP1;ratioP1;P2;durP2;ratioP2
68398;SDS011;56258;52.196;13.868;2023-02-28T00:00:51;1.73;;;0.20;;
68398;SDS011;56258;52.196;13.868;2023-02-28T00:03:18;2.15;;;0.20;;
68398;SDS011;56258;52.196;13.868;2023-02-28T00:05:44;1.80;;;0.30;;
68398;SDS011;56258;52.196;13.868;2023-02-28T00:08:11;1.45;;;0.20;;
68398;SDS011;56258;52.196;13.868;2023-02-28T00:10:39;1.50;;;0.20;;
68398;SDS011;56258;52.196;13.868;2023-02-28T00:13:06;1.40;;;0.20;;
68398;SDS011;56258;52.196;13.868;2023-02-28T00:15:33;2.08;;;0.30;;
68398;SDS011;56258;52.196;13.868;2023-02-28T00:17:59;2.15;;;0.20;;
68398;SDS011;56258;52.196;13.868;2023-02-28T00:20:27;1.88;;;0.28;;
68398;SDS011;56258;52.196;13.868;2023-02-28T00:22:54;2.10;;;0.27;;
68398;SDS011;56258;52.196;13.868;2023-02-28T00:25:45;1.85;;;0.28;;
68398;SDS011;56258;52.196;13.868;2023-02-28T00:28:36;2.00;;;0.30;;
68398;SDS011;56258;52.196;13.868;2023-02-28T00:31:27;1.65;;;0.30;;
68398;SDS011;56258;52.196;13.868;2023-02-28T00:34:18;2.10;;;0.30;;
68398;SDS011;56258;52.196;13.868;2023-02-28T00:37:09;1.97;;;0.20;;
68398;SDS011;56258;52.196;13.868;2023-02-28T00:40:02;1.92;;;0.20;;
68398;SDS011;56258;52.196;13.868;2023-02-28T00:42:55;2.22;;;0.25;;
68398;SDS011;56258;52.196;13.868;2023-02-28T00:45:46;1.88;;;0.25;;
68398;SDS011;56258;52.196;13.868;2023-02-28T00:48:37;1.92;;;0.30;;
68398;SDS011;56258;52.196;13.868;2023-02-28T00:51:28;2.07;;;0.27;;
68398;SDS011;56258;52.196;13.868;2023-02-28T00:54:19;2.10;;;0.30;;
68398;SDS011;56258;52.196;13.868;2023-02-28T04:50:54;4.65;;;0.40;;
68398;SDS011;56258;52.196;13.868;2023-02-28T04:53:21;4.17;;;0.30;;
68398;SDS011;56258;52.196;13.868;2023-02-28T04:55:47;3.50;;;0.30;;
68398;SDS011;56258;52.196;13.868;2023-02-28T04:58:14;2.13;;;0.30;;
68398;SDS011;56258;52.196;13.868;2023-02-28T05:00:40;2.13;;;0.30;;
68398;SDS011;56258;52.196;13.868;2023-02-28T05:03:07;2.42;;;0.40;;
68398;SDS011;56258;52.196;13.868;2023-02-28T05:05:34;4.07;;;0.40;;
68398;SDS011;56258;52.196;13.868;2023-02-28T05:08:00;2.20;;;0.30;;
68398;SDS011;56258;52.196;13.868;2023-02-28T05:10:27;2.28;;;0.30;;
68398;SDS011;56258;52.196;13.868;2023-02-28T05:12:53;2.75;;;0.30;;
68398;SDS011;56258;52.196;13.868;2023-02-28T05:15:20;2.47;;;0.30;;
68398;SDS011;56258;52.196;13.868;2023-02-28T05:17:47;3.53;;;0.40;;
68398;SDS011;56258;52.196;13.868;2023-02-28T05:20:13;3.40;;;0.30;;
68398;SDS011;56258;52.196;13.868;2023-02-28T05:22:41;3.42;;;0.30;;
68398;SDS011;56258;52.196;13.868;2023-02-28T05:25:10;2.42;;;0.30;;
68398;SDS011;56258;52.196;13.868;2023-02-28T05:27:42;1.85;;;0.30;;
68398;SDS011;56258;52.196;13.868;2023-02-28T05:30:08;3.00;;;0.30;;
68398;SDS011;56258;52.196;13.868;2023-02-28T05:32:38;3.17;;;0.30;;
68398;SDS011;56258;52.196;13.868;2023-02-28T05:35:10;2.42;;;0.30;;
68398;SDS011;56258;52.196;13.868;2023-02-28T05:37:38;2.95;;;0.30;;
68398;SDS011;56258;52.196;13.868;2023-02-28T05:40:05;1.98;;;0.30;;
68398;SDS011;56258;52.196;13.868;2023-02-28T05:42:33;2.70;;;0.27;;
68398;SDS011;56258;52.196;13.868;2023-02-28T05:45:00;2.17;;;0.30;;
68398;SDS011;56258;52.196;13.868;2023-02-28T05:47:26;2.40;;;0.30;;
68398;SDS011;56258;52.196;13.868;2023-02-28T05:49:53;2.45;;;0.30;;
68398;SDS011;56258;52.196;13.868;2023-02-28T05:52:19;3.00;;;0.30;;
68398;SDS011;56258;52.196;13.868;2023-02-28T05:54:46;2.50;;;0.30;;
68398;SDS011;56258;52.196;13.868;2023-02-28T05:57:13;2.55;;;0.30;;
68398;SDS011;56258;52.196;13.868;2023-02-28T05:59:49;2.38;;;0.40;;
68398;SDS011;56258;52.196;13.868;2023-02-28T06:02:16;3.05;;;0.30;;
68398;SDS011;56258;52.196;13.868;2023-02-28T06:04:44;3.03;;;0.30;;
68398;SDS011;56258;52.196;13.868;2023-02-28T06:07:11;2.67;;;0.30;;
68398;SDS011;56258;52.196;13.868;2023-02-28T06:09:38;2.55;;;0.30;;
68398;SDS011;56258;52.196;13.868;2023-02-28T06:12:05;2.92;;;0.30;;
68398;SDS011;56258;52.196;13.868;2023-02-28T06:14:33;2.95;;;0.40;;
68398;SDS011;56258;52.196;13.868;2023-02-28T06:17:00;2.60;;;0.30;;
68398;SDS011;56258;52.196;13.868;2023-02-28T06:19:27;2.03;;;0.30;;
68398;SDS011;56258;52.196;13.868;2023-02-28T06:21:56;3.00;;;0.40;;
68398;SDS011;56258;52.196;13.868;2023-02-28T06:24:24;2.72;;;0.35;;
68398;SDS011;56258;52.196;13.868;2023-02-28T06:26:54;2.55;;;0.40;;
68398;SDS011;56258;52.196;13.868;2023-02-28T06:29:21;2.33;;;0.30;;
68398;SDS011;56258;52.196;13.868;2023-02-28T06:31:48;2.07;;;0.30;;
68398;SDS011;56258;52.196;13.868;2023-02-28T06:34:14;3.03;;;0.32;;
68398;SDS011;56258;52.196;13.868;2023-02-28T06:36:42;2.50;;;0.40;;
68398;SDS011;56258;52.196;13.868;2023-02-28T06:39:09;3.13;;;0.35;;
68398;SDS011;56258;52.196;13.868;2023-02-28T06:41:36;2.75;;;0.40;;
68398;SDS011;56258;52.196;13.868;2023-02-28T06:44:19;2.43;;;0.30;;
68398;SDS011;56258;52.196;13.868;2023-02-28T06:46:46;2.92;;;0.30;;
68398;SDS011;56258;52.196;13.868;2023-02-28T06:49:13;3.33;;;0.30;;
68398;SDS011;56258;52.196;13.868;2023-02-28T06:51:41;5.55;;;0.40;;
68398;SDS011;56258;52.196;13.868;2023-02-28T06:54:12;7.28;;;0.40;;
68398;SDS011;56258;52.196;13.868;2023-02-28T06:56:40;3.90;;;0.30;;
68398;SDS011;56258;52.196;13.868;2023-02-28T06:59:06;4.18;;;0.35;;
68398;SDS011;56258;52.196;13.868;2023-02-28T07:01:33;3.65;;;0.30;;
68398;SDS011;56258;52.196;13.868;2023-02-28T07:04:00;3.67;;;0.35;;
68398;SDS011;56258;52.196;13.868;2023-02-28T07:06:27;4.28;;;0.40;;
68398;SDS011;56258;52.196;13.868;2023-02-28T07:08:54;6.47;;;0.50;;
68398;SDS011;56258;52.196;13.868;2023-02-28T07:11:22;3.05;;;0.40;;
68398;SDS011;56258;52.196;13.868;2023-02-28T07:13:52;5.07;;;0.50;;
68398;SDS011;56258;52.196;13.868;2023-02-28T07:16:22;3.65;;;0.30;;
68398;SDS011;56258;52.196;13.868;2023-02-28T07:18:53;4.80;;;0.50;;
68398;SDS011;56258;52.196;13.868;2023-02-28T07:21:21;6.93;;;0.30;;
68398;SDS011;56258;52.196;13.868;2023-02-28T07:23:47;5.55;;;0.30;;
68398;SDS011;56258;52.196;13.868;2023-02-28T07:26:15;3.85;;;0.40;;
68398;SDS011;56258;52.196;13.868;2023-02-28T07:28:44;3.33;;;0.30;;
68398;SDS011;56258;52.196;13.868;2023-02-28T07:31:12;4.13;;;0.50;;
68398;SDS011;56258;52.196;13.868;2023-02-28T07:33:40;2.70;;;0.40;;
68398;SDS011;56258;52.196;13.868;2023-02-28T07:36:09;2.85;;;0.30;;
68398;SDS011;56258;52.196;13.868;2023-02-28T07:38:42;2.30;;;0.30;;
68398;SDS011;56258;52.196;13.868;2023-02-28T07:41:14;3.30;;;0.38;;
68398;SDS011;56258;52.196;13.868;2023-02-28T07:43:42;3.22;;;0.30;;
68398;SDS011;56258;52.196;13.868;2023-02-28T07:46:10;2.90;;;0.30;;
68398;SDS011;56258;52.196;13.868;2023-02-28T07:48:38;5.03;;;0.50;;
68398;SDS011;56258;52.196;13.868;2023-02-28T07:51:05;5.22;;;0.60;;
68398;SDS011;56258;52.196;13.868;2023-02-28T07:53:32;5.15;;;0.45;;
68398;SDS011;56258;52.196;13.868;2023-02-28T07:55:59;4.20;;;0.40;;
68398;SDS011;56258;52.196;13.868;2023-02-28T07:58:28;3.77;;;0.60;;
68398;SDS011;56258;52.196;13.868;2023-02-28T08:00:56;5.00;;;0.40;;
68398;SDS011;56258;52.196;13.868;2023-02-28T08:03:23;4.30;;;0.60;;
68398;SDS011;56258;52.196;13.868;2023-02-28T08:05:50;3.40;;;0.40;;
68398;SDS011;56258;52.196;13.868;2023-02-28T08:08:18;2.60;;;0.40;;
68398;SDS011;56258;52.196;13.868;2023-02-28T08:10:45;3.40;;;0.40;;
68398;SDS011;56258;52.196;13.868;2023-02-28T08:13:12;4.32;;;0.40;;
68398;SDS011;56258;52.196;13.868;2023-02-28T08:15:40;4.03;;;0.30;;
68398;SDS011;56258;52.196;13.868;2023-02-28T08:18:09;6.63;;;0.50;;
68398;SDS011;56258;52.196;13.868;2023-02-28T08:20:36;2.55;;;0.30;;
68398;SDS011;56258;52.196;13.868;2023-02-28T08:23:02;3.80;;;0.40;;
68398;SDS011;56258;52.196;13.868;2023-02-28T08:25:29;3.45;;;0.50;;
68398;SDS011;56258;52.196;13.868;2023-02-28T08:27:56;2.97;;;0.40;;
68398;SDS011;56258;52.196;13.868;2023-02-28T08:30:22;3.92;;;0.40;;
68398;SDS011;56258;52.196;13.868;2023-02-28T08:32:49;4.32;;;0.50;;
68398;SDS011;56258;52.196;13.868;2023-02-28T08:35:16;4.00;;;0.50;;
68398;SDS011;56258;52.196;13.868;2023-02-28T08:37:42;3.50;;;0.50;;
68398;SDS011;56258;52.196;13.868;2023-02-28T08:40:09;4.40;;;0.50;;
68398;SDS011;56258;52.196;13.868;2023-02-28T08:42:37;3.40;;;0.40;;
68398;SDS011;56258;52.196;13.868;2023-02-28T08:45:03;4.25;;;0.50;;
68398;SDS011;56258;52.196;13.868;2023-02-28T08:47:30;3.00;;;0.40;;
68398;SDS011;56258;52.196;13.868;2023-02-28T08:49:57;3.47;;;0.40;;
68398;SDS011;56258;52.196;13.868;2023-02-28T08:52:24;4.07;;;0.70;;
68398;SDS011;56258;52.196;13.868;2023-02-28T08:54:51;4.90;;;0.80;;
68398;SDS011;56258;52.196;13.868;2023-02-28T08:57:17;8.07;;;1.88;;
68398;SDS011;56258;52.196;13.868;2023-02-28T08:59:44;6.70;;;1.50;;
68398;SDS011;56258;52.196;13.868;2023-02-28T09:02:14;5.28;;;1.00;;
68398;SDS011;56258;52.196;13.868;2023-02-28T09:04:41;5.45;;;1.00;;
68398;SDS011;56258;52.196;13.868;2023-02-28T09:07:07;4.88;;;0.70;;
68398;SDS011;56258;52.196;13.868;2023-02-28T09:09:34;4.57;;;0.77;;
68398;SDS011;56258;52.196;13.868;2023-02-28T09:12:01;5.17;;;0.90;;
68398;SDS011;56258;52.196;13.868;2023-02-28T09:14:28;5.65;;;0.63;;
68398;SDS011;56258;52.196;13.868;2023-02-28T09:16:54;4.35;;;0.80;;
68398;SDS011;56258;52.196;13.868;2023-02-28T09:19:21;5.05;;;0.80;;
68398;SDS011;56258;52.196;13.868;2023-02-28T09:21:48;4.95;;;0.75;;
68398;SDS011;56258;52.196;13.868;2023-02-28T09:24:15;5.07;;;0.70;;
68398;SDS011;56258;52.196;13.868;2023-02-28T09:26:41;5.15;;;0.88;;
68398;SDS011;56258;52.196;13.868;2023-02-28T09:29:28;4.40;;;0.90;;
68398;SDS011;56258;52.196;13.868;2023-02-28T09:31:55;4.85;;;0.80;;
68398;SDS011;56258;52.196;13.868;2023-02-28T09:34:25;4.78;;;0.82;;
68398;SDS011;56258;52.196;13.868;2023-02-28T09:36:53;3.97;;;0.67;;
68398;SDS011;56258;52.196;13.868;2023-02-28T09:39:21;5.03;;;0.77;;
68398;SDS011;56258;52.196;13.868;2023-02-28T09:41:49;4.68;;;0.75;;
68398;SDS011;56258;52.196;13.868;2023-02-28T09:44:32;4.40;;;0.80;;
68398;SDS011;56258;52.196;13.868;2023-02-28T09:47:13;7.30;;;1.00;;
68398;SDS011;56258;52.196;13.868;2023-02-28T09:49:50;5.77;;;0.90;;
68398;SDS011;56258;52.196;13.868;2023-02-28T09:52:18;4.55;;;0.70;;
68398;SDS011;56258;52.196;13.868;2023-02-28T09:54:47;4.47;;;0.77;;
68398;SDS011;56258;52.196;13.868;2023-02-28T09:57:19;4.55;;;0.98;;
68398;SDS011;56258;52.196;13.868;2023-02-28T10:05:32;4.45;;;0.90;;
68398;SDS011;56258;52.196;13.868;2023-02-28T10:08:14;4.55;;;0.98;;
68398;SDS011;56258;52.196;13.868;2023-02-28T10:10:45;5.32;;;1.05;;
68398;SDS011;56258;52.196;13.868;2023-02-28T10:13:34;4.63;;;1.20;;
68398;SDS011;56258;52.196;13.868;2023-02-28T10:16:03;4.03;;;0.90;;
68398;SDS011;56258;52.196;13.868;2023-02-28T10:18:58;4.22;;;0.95;;
68398;SDS011;56258;52.196;13.868;2023-02-28T10:24:03;4.57;;;1.25;;
68398;SDS011;56258;52.196;13.868;2023-02-28T10:26:51;4.10;;;1.17;;
68398;SDS011;56258;52.196;13.868;2023-02-28T10:29:23;4.60;;;1.27;;
68398;SDS011;56258;52.196;13.868;2023-02-28T10:31:49;5.10;;;1.30;;
68398;SDS011;56258;52.196;13.868;2023-02-28T10:34:16;4.28;;;1.10;;
68398;SDS011;56258;52.196;13.868;2023-02-28T10:36:43;4.60;;;1.33;;
68398;SDS011;56258;52.196;13.868;2023-02-28T10:50:44;4.13;;;0.80;;
68398;SDS011;56258;52.196;13.868;2023-02-28T10:56:14;3.43;;;0.50;;
68398;SDS011;56258;52.196;13.868;2023-02-28T10:58:49;4.20;;;0.60;;
68398;SDS011;56258;52.196;13.868;2023-02-28T11:01:34;4.57;;;0.70;;
68398;SDS011;56258;52.196;13.868;2023-02-28T11:04:20;10.25;;;1.00;;
68398;SDS011;56258;52.196;13.868;2023-02-28T11:06:57;8.40;;;0.90;;
68398;SDS011;56258;52.196;13.868;2023-02-28T11:09:30;4.40;;;0.50;;
68398;SDS011;56258;52.196;13.868;2023-02-28T11:12:02;4.40;;;0.60;;
68398;SDS011;56258;52.196;13.868;2023-02-28T11:14:32;5.90;;;0.82;;
68398;SDS011;56258;52.196;13.868;2023-02-28T11:17:22;4.95;;;0.50;;
68398;SDS011;56258;52.196;13.868;2023-02-28T11:19:52;4.85;;;0.75;;
68398;SDS011;56258;52.196;13.868;2023-02-28T11:22:22;4.37;;;0.50;;
68398;SDS011;56258;52.196;13.868;2023-02-28T11:24:58;7.88;;;0.65;;
68398;SDS011;56258;52.196;13.868;2023-02-28T11:29:58;5.55;;;0.90;;
68398;SDS011;56258;52.196;13.868;2023-02-28T11:32:25;6.50;;;0.60;;
68398;SDS011;56258;52.196;13.868;2023-02-28T11:37:38;5.82;;;0.70;;
68398;SDS011;56258;52.196;13.868;2023-02-28T11:40:09;5.28;;;0.60;;
68398;SDS011;56258;52.196;13.868;2023-02-28T11:42:46;6.18;;;0.60;;
68398;SDS011;56258;52.196;13.868;2023-02-28T11:48:22;4.93;;;0.70;;
68398;SDS011;56258;52.196;13.868;2023-02-28T11:51:03;4.75;;;0.73;;
68398;SDS011;56258;52.196;13.868;2023-02-28T12:02:05;5.63;;;0.70;;
68398;SDS011;56258;52.196;13.868;2023-02-28T12:05:34;5.43;;;0.90;;
68398;SDS011;56258;52.196;13.868;2023-02-28T12:07:50;4.38;;;0.70;;
68398;SDS011;56258;52.196;13.868;2023-02-28T12:13:31;5.53;;;0.73;;
68398;SDS011;56258;52.196;13.868;2023-02-28T12:16:22;5.30;;;0.60;;
68398;SDS011;56258;52.196;13.868;2023-02-28T12:19:05;4.05;;;0.63;;
68398;SDS011;56258;52.196;13.868;2023-02-28T12:24:31;5.63;;;0.80;;
68398;SDS011;56258;52.196;13.868;2023-02-28T12:27:09;4.50;;;0.77;;
68398;SDS011;56258;52.196;13.868;2023-02-28T12:29:49;4.57;;;0.80;;
68398;SDS011;56258;52.196;13.868;2023-02-28T12:32:22;4.28;;;0.90;;
68398;SDS011;56258;52.196;13.868;2023-02-28T12:35:02;4.40;;;0.80;;
68398;SDS011;56258;52.196;13.868;2023-02-28T12:40:11;4.60;;;1.10;;
68398;SDS011;56258;52.196;13.868;2023-02-28T12:42:45;4.10;;;0.80;;
68398;SDS011;56258;52.196;13.868;2023-02-28T12:45:19;4.15;;;1.05;;
68398;SDS011;56258;52.196;13.868;2023-02-28T12:47:58;4.63;;;1.08;;
68398;SDS011;56258;52.196;13.868;2023-02-28T12:50:29;4.10;;;0.95;;
68398;SDS011;56258;52.196;13.868;2023-02-28T12:53:03;4.15;;;1.27;;
68398;SDS011;56258;52.196;13.868;2023-02-28T12:55:40;5.07;;;1.23;;
68398;SDS011;56258;52.196;13.868;2023-02-28T13:00:44;4.40;;;1.08;;
68398;SDS011;56258;52.196;13.868;2023-02-28T13:03:32;4.20;;;0.70;;
68398;SDS011;56258;52.196;13.868;2023-02-28T13:11:32;3.80;;;0.93;;
68398;SDS011;56258;52.196;13.868;2023-02-28T13:14:20;4.28;;;1.05;;
68398;SDS011;56258;52.196;13.868;2023-02-28T13:19:42;3.97;;;0.93;;
68398;SDS011;56258;52.196;13.868;2023-02-28T13:22:20;3.70;;;0.70;;
68398;SDS011;56258;52.196;13.868;2023-02-28T13:27:49;4.88;;;0.80;;
68398;SDS011;56258;52.196;13.868;2023-02-28T13:33:29;3.92;;;0.73;;
68398;SDS011;56258;52.196;13.868;2023-02-28T13:36:22;4.17;;;0.60;;
68398;SDS011;56258;52.196;13.868;2023-02-28T13:43:59;4.30;;;0.80;;
68398;SDS011;56258;52.196;13.868;2023-02-28T13:49:32;3.90;;;0.70;;
68398;SDS011;56258;52.196;13.868;2023-02-28T14:00:04;4.35;;;0.85;;
68398;SDS011;56258;52.196;13.868;2023-02-28T14:05:32;4.07;;;0.90;;
68398;SDS011;56258;52.196;13.868;2023-02-28T14:08:18;4.30;;;0.88;;
68398;SDS011;56258;52.196;13.868;2023-02-28T14:10:49;3.53;;;0.60;;
68398;SDS011;56258;52.196;13.868;2023-02-28T14:13:37;4.38;;;0.80;;
68398;SDS011;56258;52.196;13.868;2023-02-28T14:16:16;3.83;;;0.70;;
68398;SDS011;56258;52.196;13.868;2023-02-28T14:19:09;4.75;;;0.70;;
68398;SDS011;56258;52.196;13.868;2023-02-28T14:31:04;3.50;;;0.67;;
68398;SDS011;56258;52.196;13.868;2023-02-28T14:33:54;3.67;;;0.75;;
68398;SDS011;56258;52.196;13.868;2023-02-28T14:36:35;4.43;;;0.70;;
68398;SDS011;56258;52.196;13.868;2023-02-28T14:41:38;3.92;;;0.70;;
68398;SDS011;56258;52.196;13.868;2023-02-28T14:46:46;3.33;;;0.70;;
68398;SDS011;56258;52.196;13.868;2023-02-28T14:49:32;3.55;;;0.80;;
68398;SDS011;56258;52.196;13.868;2023-02-28T14:52:03;3.00;;;0.60;;
68398;SDS011;56258;52.196;13.868;2023-02-28T14:54:54;3.65;;;0.68;;
68398;SDS011;56258;52.196;13.868;2023-02-28T14:57:24;3.90;;;0.80;;
68398;SDS011;56258;52.196;13.868;2023-02-28T15:00:04;3.38;;;0.60;;
68398;SDS011;56258;52.196;13.868;2023-02-28T15:02:40;3.70;;;0.77;;
68398;SDS011;56258;52.196;13.868;2023-02-28T15:07:43;3.70;;;0.63;;
68398;SDS011;56258;52.196;13.868;2023-02-28T15:10:23;3.80;;;0.70;;
68398;SDS011;56258;52.196;13.868;2023-02-28T15:12:55;3.55;;;0.68;;
68398;SDS011;56258;52.196;13.868;2023-02-28T15:15:26;3.80;;;0.75;;
68398;SDS011;56258;52.196;13.868;2023-02-28T15:21:15;3.30;;;0.60;;
68398;SDS011;56258;52.196;13.868;2023-02-28T15:26:23;2.92;;;0.60;;
68398;SDS011;56258;52.196;13.868;2023-02-28T15:28:57;4.35;;;0.70;;
68398;SDS011;56258;52.196;13.868;2023-02-28T15:31:32;3.70;;;0.60;;
68398;SDS011;56258;52.196;13.868;2023-02-28T15:34:43;3.35;;;0.60;;
68398;SDS011;56258;52.196;13.868;2023-02-28T15:40:05;3.28;;;0.52;;
68398;SDS011;56258;52.196;13.868;2023-02-28T15:42:37;3.88;;;0.70;;
68398;SDS011;56258;52.196;13.868;2023-02-28T15:45:04;3.17;;;0.40;;
68398;SDS011;56258;52.196;13.868;2023-02-28T15:47:31;4.53;;;0.70;;
68398;SDS011;56258;52.196;13.868;2023-02-28T15:49:59;3.10;;;0.50;;
68398;SDS011;56258;52.196;13.868;2023-02-28T15:52:37;3.35;;;0.60;;
68398;SDS011;56258;52.196;13.868;2023-02-28T15:55:10;3.72;;;0.60;;
68398;SDS011;56258;52.196;13.868;2023-02-28T15:57:44;3.40;;;0.50;;
68398;SDS011;56258;52.196;13.868;2023-02-28T16:00:15;3.40;;;0.55;;
68398;SDS011;56258;52.196;13.868;2023-02-28T16:02:45;3.10;;;0.57;;
68398;SDS011;56258;52.196;13.868;2023-02-28T16:07:54;3.08;;;0.50;;
68398;SDS011;56258;52.196;13.868;2023-02-28T16:10:22;3.63;;;0.60;;
68398;SDS011;56258;52.196;13.868;2023-02-28T16:12:52;3.72;;;0.50;;
68398;SDS011;56258;52.196;13.868;2023-02-28T16:15:28;3.67;;;0.60;;
68398;SDS011;56258;52.196;13.868;2023-02-28T16:17:57;3.65;;;0.50;;
68398;SDS011;56258;52.196;13.868;2023-02-28T16:20:25;3.53;;;0.60;;
68398;SDS011;56258;52.196;13.868;2023-02-28T16:22:53;3.20;;;0.50;;
68398;SDS011;56258;52.196;13.868;2023-02-28T16:25:23;3.67;;;0.50;;
68398;SDS011;56258;52.196;13.868;2023-02-28T16:27:53;3.10;;;0.53;;
68398;SDS011;56258;52.196;13.868;2023-02-28T16:30:22;3.35;;;0.50;;
68398;SDS011;56258;52.196;13.868;2023-02-28T16:32:51;3.10;;;0.47;;
68398;SDS011;56258;52.196;13.868;2023-02-28T16:35:19;3.70;;;0.60;;
68398;SDS011;56258;52.196;13.868;2023-02-28T16:37:46;3.55;;;0.70;;
68398;SDS011;56258;52.196;13.868;2023-02-28T16:40:17;3.27;;;0.60;;
68398;SDS011;56258;52.196;13.868;2023-02-28T16:42:46;4.18;;;0.65;;
68398;SDS011;56258;52.196;13.868;2023-02-28T16:45:17;3.75;;;0.60;;
68398;SDS011;56258;52.196;13.868;2023-02-28T16:47:46;3.85;;;0.52;;
68398;SDS011;56258;52.196;13.868;2023-02-28T16:50:14;3.22;;;0.50;;
68398;SDS011;56258;52.196;13.868;2023-02-28T16:52:46;7.67;;;0.60;;
68398;SDS011;56258;52.196;13.868;2023-02-28T16:55:14;9.32;;;0.80;;
68398;SDS011;56258;52.196;13.868;2023-02-28T16:57:41;3.47;;;0.50;;
68398;SDS011;56258;52.196;13.868;2023-02-28T17:00:10;4.50;;;0.50;;
68398;SDS011;56258;52.196;13.868;2023-02-28T17:02:39;4.32;;;0.50;;
68398;SDS011;56258;52.196;13.868;2023-02-28T17:05:08;5.80;;;0.70;;
68398;SDS011;56258;52.196;13.868;2023-02-28T17:07:39;4.35;;;0.70;;
68398;SDS011;56258;52.196;13.868;2023-02-28T17:10:13;4.47;;;0.47;;
68398;SDS011;56258;52.196;13.868;2023-02-28T17:12:39;5.60;;;0.68;;
68398;SDS011;56258;52.196;13.868;2023-02-28T17:15:06;3.60;;;0.50;;
68398;SDS011;56258;52.196;13.868;2023-02-28T17:17:34;5.07;;;0.60;;
68398;SDS011;56258;52.196;13.868;2023-02-28T17:20:01;3.38;;;0.50;;
68398;SDS011;56258;52.196;13.868;2023-02-28T17:22:29;4.93;;;0.70;;
68398;SDS011;56258;52.196;13.868;2023-02-28T17:24:55;4.55;;;0.60;;
68398;SDS011;56258;52.196;13.868;2023-02-28T17:27:22;3.97;;;0.60;;
68398;SDS011;56258;52.196;13.868;2023-02-28T17:29:48;4.37;;;0.73;;
68398;SDS011;56258;52.196;13.868;2023-02-28T17:32:15;3.90;;;0.60;;
68398;SDS011;56258;52.196;13.868;2023-02-28T17:34:43;4.68;;;0.80;;
68398;SDS011;56258;52.196;13.868;2023-02-28T17:37:12;5.18;;;1.00;;
68398;SDS011;56258;52.196;13.868;2023-02-28T17:39:39;4.68;;;1.15;;
68398;SDS011;56258;52.196;13.868;2023-02-28T17:42:05;3.90;;;1.10;;
68398;SDS011;56258;52.196;13.868;2023-02-28T17:44:32;5.47;;;1.25;;
68398;SDS011;56258;52.196;13.868;2023-02-28T17:46:58;5.38;;;1.60;;
68398;SDS011;56258;52.196;13.868;2023-02-28T17:49:26;5.43;;;1.60;;
68398;SDS011;56258;52.196;13.868;2023-02-28T17:51:53;5.40;;;1.50;;
68398;SDS011;56258;52.196;13.868;2023-02-28T17:54:19;6.30;;;2.00;;
68398;SDS011;56258;52.196;13.868;2023-02-28T17:56:46;6.05;;;2.08;;
68398;SDS011;56258;52.196;13.868;2023-02-28T17:59:13;7.93;;;2.15;;
68398;SDS011;56258;52.196;13.868;2023-02-28T18:01:39;6.20;;;2.50;;
68398;SDS011;56258;52.196;13.868;2023-02-28T18:04:06;5.72;;;2.20;;
68398;SDS011;56258;52.196;13.868;2023-02-28T18:06:43;6.10;;;2.30;;
68398;SDS011;56258;52.196;13.868;2023-02-28T18:09:14;6.10;;;2.42;;
68398;SDS011;56258;52.196;13.868;2023-02-28T18:11:42;6.22;;;2.38;;
68398;SDS011;56258;52.196;13.868;2023-02-28T18:14:11;7.40;;;3.03;;
68398;SDS011;56258;52.196;13.868;2023-02-28T18:16:38;6.82;;;3.03;;
68398;SDS011;56258;52.196;13.868;2023-02-28T18:19:05;6.90;;;3.10;;
68398;SDS011;56258;52.196;13.868;2023-02-28T18:21:33;7.32;;;3.20;;
68398;SDS011;56258;52.196;13.868;2023-02-28T18:24:00;7.88;;;3.33;;
68398;SDS011;56258;52.196;13.868;2023-02-28T18:26:27;8.35;;;3.13;;
68398;SDS011;56258;52.196;13.868;2023-02-28T18:28:54;7.07;;;3.47;;
68398;SDS011;56258;52.196;13.868;2023-02-28T18:31:21;7.53;;;3.57;;
68398;SDS011;56258;52.196;13.868;2023-02-28T18:33:48;6.82;;;3.72;;
68398;SDS011;56258;52.196;13.868;2023-02-28T18:36:16;8.27;;;4.03;;
68398;SDS011;56258;52.196;13.868;2023-02-28T18:38:44;7.63;;;3.75;;
68398;SDS011;56258;52.196;13.868;2023-02-28T18:41:11;8.63;;;4.47;;
68398;SDS011;56258;52.196;13.868;2023-02-28T18:43:38;7.57;;;4.20;;
68398;SDS011;56258;52.196;13.868;2023-02-28T18:46:06;8.07;;;4.10;;
68398;SDS011;56258;52.196;13.868;2023-02-28T18:48:35;7.18;;;4.10;;
68398;SDS011;56258;52.196;13.868;2023-02-28T18:51:06;7.90;;;4.30;;
68398;SDS011;56258;52.196;13.868;2023-02-28T18:53:37;9.00;;;4.13;;
68398;SDS011;56258;52.196;13.868;2023-02-28T18:56:05;8.10;;;4.10;;
68398;SDS011;56258;52.196;13.868;2023-02-28T18:58:32;7.65;;;4.13;;
68398;SDS011;56258;52.196;13.868;2023-02-28T19:01:00;8.00;;;4.18;;
68398;SDS011;56258;52.196;13.868;2023-02-28T19:03:28;8.52;;;4.32;;
68398;SDS011;56258;52.196;13.868;2023-02-28T19:05:55;8.52;;;4.75;;
68398;SDS011;56258;52.196;13.868;2023-02-28T19:08:24;8.20;;;4.43;;
68398;SDS011;56258;52.196;13.868;2023-02-28T19:10:51;7.88;;;4.15;;
68398;SDS011;56258;52.196;13.868;2023-02-28T19:13:18;8.95;;;4.10;;
68398;SDS011;56258;52.196;13.868;2023-02-28T19:15:46;8.35;;;4.63;;
68398;SDS011;56258;52.196;13.868;2023-02-28T19:18:13;9.48;;;4.43;;
68398;SDS011;56258;52.196;13.868;2023-02-28T19:20:40;9.57;;;4.53;;
68398;SDS011;56258;52.196;13.868;2023-02-28T19:23:06;8.90;;;4.43;;
68398;SDS011;56258;52.196;13.868;2023-02-28T19:25:38;9.43;;;4.72;;
68398;SDS011;56258;52.196;13.868;2023-02-28T19:28:06;9.20;;;4.80;;
68398;SDS011;56258;52.196;13.868;2023-02-28T19:30:32;8.93;;;4.80;;
68398;SDS011;56258;52.196;13.868;2023-02-28T19:32:59;8.07;;;4.60;;
68398;SDS011;56258;52.196;13.868;2023-02-28T19:35:25;8.48;;;4.22;;
68398;SDS011;56258;52.196;13.868;2023-02-28T19:37:52;8.43;;;4.50;;
68398;SDS011;56258;52.196;13.868;2023-02-28T19:40:18;8.15;;;4.30;;
68398;SDS011;56258;52.196;13.868;2023-02-28T19:42:45;8.43;;;4.50;;
68398;SDS011;56258;52.196;13.868;2023-02-28T19:45:12;9.00;;;4.40;;
68398;SDS011;56258;52.196;13.868;2023-02-28T19:47:40;8.30;;;4.30;;
68398;SDS011;56258;52.196;13.868;2023-02-28T19:50:07;8.43;;;4.68;;
68398;SDS011;56258;52.196;13.868;2023-02-28T19:52:34;7.88;;;4.47;;
68398;SDS011;56258;52.196;13.868;2023-02-28T19:55:01;8.55;;;4.70;;
68398;SDS011;56258;52.196;13.868;2023-02-28T19:57:27;8.97;;;4.67;;
68398;SDS011;56258;52.196;13.868;2023-02-28T19:59:54;8.63;;;5.00;;
68398;SDS011;56258;52.196;13.868;2023-02-28T20:02:21;10.18;;;4.95;;
68398;SDS011;56258;52.196;13.868;2023-02-28T20:04:48;8.07;;;4.40;;
68398;SDS011;56258;52.196;13.868;2023-02-28T20:07:16;8.68;;;4.82;;
68398;SDS011;56258;52.196;13.868;2023-02-28T20:09:46;9.07;;;4.33;;
68398;SDS011;56258;52.196;13.868;2023-02-28T20:12:13;9.90;;;4.47;;
68398;SDS011;56258;52.196;13.868;2023-02-28T20:14:49;9.77;;;4.88;;
68398;SDS011;56258;52.196;13.868;2023-02-28T20:17:16;8.00;;;4.43;;
68398;SDS011;56258;52.196;13.868;2023-02-28T20:19:44;9.88;;;4.88;;
68398;SDS011;56258;52.196;13.868;2023-02-28T20:22:11;9.03;;;4.63;;
68398;SDS011;56258;52.196;13.868;2023-02-28T20:24:37;8.93;;;4.38;;
68398;SDS011;56258;52.196;13.868;2023-02-28T20:27:04;8.35;;;4.55;;
68398;SDS011;56258;52.196;13.868;2023-02-28T20:29:32;8.45;;;4.00;;
68398;SDS011;56258;52.196;13.868;2023-02-28T20:31:59;8.68;;;4.28;;
68398;SDS011;56258;52.196;13.868;2023-02-28T20:34:26;8.07;;;4.63;;
68398;SDS011;56258;52.196;13.868;2023-02-28T20:36:53;7.85;;;4.43;;
68398;SDS011;56258;52.196;13.868;2023-02-28T20:39:21;8.02;;;4.38;;
68398;SDS011;56258;52.196;13.868;2023-02-28T20:41:49;9.15;;;4.68;;